KIAG/IAG METAR and TAF weather

Enter ICAO airport designator
Station Type Date Time Source
KIAG METAR 2018/12/11 19:53 UTC NOAA

KIAG 111953Z 25011G16KT 2SM -SN FEW017 BKN028 OVC033 M02/M04 A2994 RMK AO2 SLP153 P0000 T10171044


Station Type Date Time Source
KIAG Decoded METAR 2018/12/11 19:53 UTC NOAA

NIAGARA FALLS INTERNATIONAL AIRPORT, NY, United States (KIAG) 43-07N 078-56W 182M
Dec 11, 2018 - 02:53 PM EST / 2018.12.11 1953 UTC
Wind: from the WSW (250 degrees) at 13 MPH (11 KT) gusting to 18 MPH (16 KT):0
Visibility: 2 mile(s):0
Sky conditions: overcast
Weather: light snow
Precipitation last hour: A trace
Temperature: 28.9 F (-1.7 C)
Windchill: 17 F (-8 C):1
Dew Point: 24.1 F (-4.4 C)
Relative Humidity: 81%
Pressure (altimeter): 29.94 in. Hg (1013 hPa)
ob: KIAG 111953Z 25011G16KT 2SM -SN FEW017 BKN028 OVC033 M02/M04 A2994 RMK AO2 SLP153 P0000 T10171044
cycle: 20

Station Type Date Time Source
KIAG TAF 2018/12/11 18:40 UTC NOAA

TAF KIAG 111737Z 1118/1218 27010KT 5SM -SN OVC017
FM120000 28007KT 6SM -SN OVC025
FM120200 27006KT P6SM BKN025
FM120400 27005KT P6SM BKN035
FM121000 VRB03KT P6SM BKN050
FM121500 VRB03KT P6SM BKN025


Example: see airport list